Time;durP1;ratioP1;P1;durP2;ratioP2;P2;SDS_P1;SDS_P2;PMS_P1;PMS_P2;Temp;Humidity;BMP_temperature;BMP_pressure;BME280_temperature;BME280_humidity;BME280_pressure;Samples;Min_cycle;Max_cycle;Signal;HPM_P1;HPM_P2
2023/03/11 00:02:15;;;;;;;7.13;0.50;;;0.50;99.90;;;;;;5068670;28;20426;-91
2023/03/11 00:04:42;;;;;;;6.72;0.63;;;0.60;99.90;;;;;;5069386;28;20841;-91
2023/03/11 00:07:09;;;;;;;5.50;0.30;;;0.50;99.90;;;;;;5067598;28;20426;-90
2023/03/11 00:09:35;;;;;;;6.00;0.45;;;0.80;99.90;;;;;;5069367;28;20398;-91
2023/03/11 00:12:02;;;;;;;4.18;0.50;;;0.60;99.90;;;;;;5070076;28;20480;-90
2023/03/11 00:14:27;;;;;;;6.78;0.50;;;0.50;99.90;;;;;;5069269;28;20405;-92
2023/03/11 00:16:53;;;;;;;5.32;0.75;;;0.60;99.90;;;;;;5069753;28;20409;-91
2023/03/11 00:19:19;;;;;;;3.58;0.40;;;0.50;99.90;;;;;;5069277;28;20482;-91
2023/03/11 00:21:44;;;;;;;5.68;0.80;;;0.50;99.90;;;;;;5070188;28;20417;-91
2023/03/11 00:24:10;;;;;;;6.50;0.60;;;0.70;99.90;;;;;;5069047;28;20447;-91
2023/03/11 00:26:36;;;;;;;6.40;0.50;;;0.50;99.90;;;;;;5086366;28;20466;-92
2023/03/11 00:29:01;;;;;;;6.57;0.90;;;0.50;99.90;;;;;;5069558;28;20451;-91
2023/03/11 00:31:27;;;;;;;10.48;1.27;;;0.50;99.90;;;;;;5069124;28;20685;-91
2023/03/11 00:33:56;;;;;;;6.65;1.08;;;0.50;99.90;;;;;;5069507;28;20471;-90
2023/03/11 00:36:30;;;;;;;7.35;0.90;;;0.50;99.90;;;;;;5068736;28;20398;-90
2023/03/11 00:38:57;;;;;;;6.88;1.10;;;0.50;99.90;;;;;;5069987;28;20796;-92
2023/03/11 00:41:23;;;;;;;6.25;0.68;;;0.50;99.90;;;;;;5068545;28;20449;-91
2023/03/11 00:43:48;;;;;;;5.63;0.50;;;0.50;99.90;;;;;;5069206;28;20410;-90
2023/03/11 00:46:14;;;;;;;3.53;0.50;;;0.40;99.90;;;;;;5068851;28;20472;-90
2023/03/11 00:48:39;;;;;;;4.28;0.50;;;0.40;99.90;;;;;;5068941;28;20437;-92
2023/03/11 00:51:14;;;;;;;4.10;0.40;;;0.40;99.90;;;;;;5069643;28;20401;-91
2023/03/11 00:53:40;;;;;;;4.80;0.40;;;0.50;99.90;;;;;;5085250;28;20935;-90
2023/03/11 00:56:11;;;;;;;4.30;0.33;;;0.50;99.90;;;;;;5069496;28;20421;-90
2023/03/11 00:58:37;;;;;;;5.10;0.40;;;0.40;99.90;;;;;;5068506;28;20430;-91
2023/03/11 01:01:07;;;;;;;5.20;0.30;;;0.40;99.90;;;;;;5069665;28;20473;-90
2023/03/11 01:03:33;;;;;;;4.78;0.30;;;0.40;99.90;;;;;;5068745;28;20429;-91
2023/03/11 01:05:59;;;;;;;4.78;0.45;;;0.50;99.90;;;;;;5069420;28;20441;-90
2023/03/11 01:08:25;;;;;;;4.50;0.30;;;0.40;99.90;;;;;;5085881;28;20461;-90
2023/03/11 01:10:52;;;;;;;5.72;0.40;;;0.40;99.90;;;;;;5085332;28;20485;-89
2023/03/11 01:13:17;;;;;;;6.07;0.77;;;0.40;99.90;;;;;;5069191;28;20401;-92
2023/03/11 01:15:43;;;;;;;3.87;0.50;;;0.40;99.90;;;;;;5068613;28;20761;-91
2023/03/11 01:18:09;;;;;;;5.32;0.60;;;0.50;99.90;;;;;;5069533;28;20765;-90
2023/03/11 01:20:36;;;;;;;3.72;0.50;;;0.40;99.90;;;;;;5068081;28;20421;-91
2023/03/11 01:23:03;;;;;;;3.72;0.40;;;0.40;99.90;;;;;;5085785;28;20984;-91
2023/03/11 01:25:29;;;;;;;4.57;0.40;;;0.40;99.90;;;;;;5069664;28;20864;-91
2023/03/11 01:27:54;;;;;;;4.80;0.50;;;0.40;99.90;;;;;;5068362;28;20430;-90
2023/03/11 01:30:23;;;;;;;4.77;0.40;;;0.30;99.90;;;;;;5069116;28;21007;-91
2023/03/11 01:32:49;;;;;;;4.32;0.75;;;0.40;99.90;;;;;;5068664;28;20896;-91
2023/03/11 01:35:16;;;;;;;5.13;0.50;;;0.40;99.90;;;;;;5068892;28;20465;-92
2023/03/11 01:37:42;;;;;;;5.60;0.70;;;0.50;99.90;;;;;;5068091;28;20401;-90
2023/03/11 01:40:30;;;;;;;3.97;0.35;;;0.40;99.90;;;;;;5068862;28;20413;-90
2023/03/11 01:42:57;;;;;;;3.65;0.40;;;0.40;99.90;;;;;;5068850;28;20410;-91
2023/03/11 01:45:37;;;;;;;2.55;0.35;;;0.40;99.90;;;;;;5068248;28;20390;-91
2023/03/11 01:48:03;;;;;;;3.38;0.20;;;0.50;99.90;;;;;;5068900;28;20448;-91
2023/03/11 01:50:37;;;;;;;4.63;0.30;;;0.30;99.90;;;;;;5067833;28;20402;-91
2023/03/11 01:53:04;;;;;;;2.58;0.38;;;0.30;99.90;;;;;;5069081;28;20405;-91
2023/03/11 01:55:31;;;;;;;2.78;0.22;;;0.50;99.90;;;;;;5068275;28;20421;-90
2023/03/11 01:57:58;;;;;;;2.70;0.20;;;0.50;99.90;;;;;;5088729;28;20444;-91
2023/03/11 02:00:24;;;;;;;3.47;0.30;;;0.30;99.90;;;;;;5088907;28;20456;-89
2023/03/11 02:02:52;;;;;;;3.20;0.40;;;0.30;99.90;;;;;;5071366;28;20796;-90
2023/03/11 02:05:22;;;;;;;2.83;0.20;;;0.30;99.90;;;;;;5090096;28;20849;-89
2023/03/11 02:07:49;;;;;;;5.05;0.30;;;0.30;99.90;;;;;;5071215;28;20453;-91
2023/03/11 02:10:15;;;;;;;3.80;0.40;;;0.20;99.90;;;;;;5072426;28;20745;-90
2023/03/11 02:12:42;;;;;;;3.00;0.30;;;0.10;99.90;;;;;;5071717;28;20452;-88
2023/03/11 02:15:09;;;;;;;4.05;0.30;;;0.10;99.90;;;;;;5072027;28;20498;-89
2023/03/11 02:17:37;;;;;;;3.55;0.50;;;0.00;99.90;;;;;;5071948;28;20437;-89
2023/03/11 02:20:25;;;;;;;5.60;0.50;;;0.00;99.90;;;;;;5071392;28;20988;-89
2023/03/11 02:22:55;;;;;;;3.60;0.40;;;-0.10;99.90;;;;;;5071654;28;20406;-88
2023/03/11 02:25:52;;;;;;;3.90;0.50;;;-0.20;99.90;;;;;;5088353;28;20528;-89
2023/03/11 02:28:19;;;;;;;6.47;0.60;;;-0.20;99.90;;;;;;5088070;28;20433;-88
2023/03/11 02:30:46;;;;;;;3.03;0.40;;;-0.30;99.90;;;;;;5088611;28;20402;-89
2023/03/11 02:33:13;;;;;;;3.35;0.40;;;-0.30;99.90;;;;;;5071030;28;20394;-89
2023/03/11 02:35:39;;;;;;;2.92;0.40;;;-0.30;99.90;;;;;;5071950;28;20424;-90
2023/03/11 02:38:05;;;;;;;4.72;0.35;;;-0.40;99.90;;;;;;5070715;28;20410;-89
2023/03/11 02:40:40;;;;;;;5.95;0.40;;;-0.40;99.90;;;;;;5071923;28;20406;-89
2023/03/11 02:43:13;;;;;;;5.80;0.40;;;-0.40;99.90;;;;;;5071255;28;20489;-89
2023/03/11 02:45:40;;;;;;;3.70;0.40;;;-0.30;99.90;;;;;;5088233;28;20948;-91
2023/03/11 02:48:08;;;;;;;4.25;0.55;;;-0.30;99.90;;;;;;5071333;28;20429;-88
2023/03/11 02:50:36;;;;;;;5.00;0.40;;;-0.30;99.90;;;;;;5087576;28;21231;-89
2023/03/11 02:53:02;;;;;;;3.20;0.30;;;-0.20;99.90;;;;;;5071535;28;20787;-89
2023/03/11 02:55:27;;;;;;;3.30;0.22;;;-0.20;99.90;;;;;;5070464;28;20447;-89
2023/03/11 02:57:53;;;;;;;4.53;0.68;;;-0.20;99.90;;;;;;5071370;28;20410;-90
2023/03/11 03:00:19;;;;;;;4.90;0.30;;;-0.20;99.90;;;;;;5070812;28;20394;-90
2023/03/11 03:02:45;;;;;;;3.63;0.40;;;-0.20;99.90;;;;;;5070891;28;20497;-89
2023/03/11 03:05:12;;;;;;;7.97;0.50;;;-0.20;99.90;;;;;;5070801;28;20413;-91
2023/03/11 03:07:38;;;;;;;7.25;0.52;;;-0.20;99.90;;;;;;5069863;28;20430;-89
2023/03/11 03:10:05;;;;;;;3.80;0.28;;;-0.20;99.90;;;;;;5071092;28;21010;-89
2023/03/11 03:12:31;;;;;;;5.78;0.40;;;-0.20;99.90;;;;;;5087333;28;20443;-90
2023/03/11 03:14:57;;;;;;;3.67;0.53;;;-0.20;99.90;;;;;;5071243;28;20449;-89
2023/03/11 03:17:23;;;;;;;5.25;0.50;;;-0.20;99.90;;;;;;5070357;28;20482;-88
2023/03/11 03:19:49;;;;;;;3.38;0.30;;;-0.20;99.90;;;;;;5070869;28;21033;-88
2023/03/11 03:22:14;;;;;;;4.83;0.30;;;-0.30;99.90;;;;;;5087803;28;20410;-89
2023/03/11 03:24:40;;;;;;;4.40;0.40;;;-0.30;99.90;;;;;;5070210;28;20397;-90
2023/03/11 03:27:06;;;;;;;4.97;0.40;;;-0.40;99.90;;;;;;5071047;28;20927;-90
2023/03/11 03:29:31;;;;;;;4.95;0.40;;;-0.50;99.90;;;;;;5070389;28;20406;-88
2023/03/11 03:31:57;;;;;;;5.07;0.70;;;-0.50;99.90;;;;;;5070871;28;20394;-89
2023/03/11 03:34:23;;;;;;;4.65;0.32;;;-0.60;99.90;;;;;;5069638;28;20416;-88
2023/03/11 03:36:48;;;;;;;5.07;0.60;;;-0.60;99.90;;;;;;5070375;28;20437;-90
2023/03/11 03:39:14;;;;;;;3.97;0.50;;;-0.70;99.90;;;;;;5069816;28;20440;-88
2023/03/11 03:41:40;;;;;;;4.15;0.40;;;-0.70;99.90;;;;;;5070021;28;20402;-89
2023/03/11 03:44:06;;;;;;;3.45;0.30;;;-0.80;99.90;;;;;;5069969;28;20905;-89
2023/03/11 03:46:31;;;;;;;4.37;0.30;;;-0.80;99.90;;;;;;5069256;28;20900;-89
2023/03/11 03:48:57;;;;;;;6.23;0.30;;;-0.80;99.90;;;;;;5070281;28;20472;-89
2023/03/11 03:51:22;;;;;;;4.40;0.40;;;-0.90;99.90;;;;;;5086407;28;20493;-88
2023/03/11 03:53:48;;;;;;;4.45;0.57;;;-0.90;99.90;;;;;;5069966;28;21084;-89
2023/03/11 03:56:16;;;;;;;3.53;0.40;;;-0.90;99.90;;;;;;5069553;28;20414;-88
2023/03/11 03:58:42;;;;;;;7.13;0.60;;;-0.90;99.90;;;;;;5070327;28;20463;-88
2023/03/11 04:01:08;;;;;;;5.53;0.57;;;-0.90;99.90;;;;;;5069494;28;20429;-89
2023/03/11 04:03:34;;;;;;;4.60;0.40;;;-1.00;99.90;;;;;;5069603;28;20444;-89
2023/03/11 04:06:22;;;;;;;7.57;0.68;;;-1.00;99.90;;;;;;5069811;28;20434;-89
2023/03/11 04:08:49;;;;;;;5.32;0.60;;;-1.10;99.90;;;;;;5068498;28;20441;-89
2023/03/11 04:11:14;;;;;;;7.30;0.40;;;-1.10;99.90;;;;;;5070071;28;21290;-89
2023/03/11 04:13:43;;;;;;;6.00;0.50;;;-1.10;99.90;;;;;;5068933;28;20432;-89
2023/03/11 04:16:11;;;;;;;4.82;0.40;;;-1.00;99.90;;;;;;5069725;28;20409;-89
2023/03/11 04:18:37;;;;;;;5.87;0.50;;;-1.20;99.90;;;;;;5068928;28;20925;-88
2023/03/11 04:21:06;;;;;;;5.00;0.90;;;-1.30;99.90;;;;;;5068559;28;20437;-88
2023/03/11 04:23:33;;;;;;;2.97;0.30;;;-1.30;99.90;;;;;;5069587;28;20447;-89
2023/03/11 04:25:58;;;;;;;4.67;0.40;;;-1.40;99.90;;;;;;5068860;28;20405;-88
2023/03/11 04:28:24;;;;;;;8.20;0.40;;;-1.40;99.90;;;;;;5069354;28;20426;-88
2023/03/11 04:30:49;;;;;;;3.70;0.40;;;-1.50;99.90;;;;;;5068927;28;20926;-89
2023/03/11 04:33:15;;;;;;;3.47;0.30;;;-1.50;99.90;;;;;;5086199;28;20924;-88
2023/03/11 04:35:41;;;;;;;3.95;0.30;;;-1.50;99.90;;;;;;5068978;28;20466;-89
2023/03/11 04:38:06;;;;;;;4.23;0.30;;;-1.50;99.90;;;;;;5085425;28;20968;-88
2023/03/11 04:40:32;;;;;;;3.33;0.40;;;-1.60;99.90;;;;;;5069421;28;20398;-89
2023/03/11 04:42:58;;;;;;;5.53;0.50;;;-1.60;99.90;;;;;;5084914;28;20955;-89
2023/03/11 04:45:23;;;;;;;3.37;0.27;;;-1.70;99.90;;;;;;5085955;28;20496;-89
2023/03/11 04:47:50;;;;;;;4.38;0.40;;;-1.70;99.90;;;;;;5068585;28;20442;-89
2023/03/11 04:50:17;;;;;;;4.28;0.30;;;-1.80;99.90;;;;;;5069239;28;20394;-89
2023/03/11 04:52:43;;;;;;;4.60;0.30;;;-1.80;99.90;;;;;;5085359;28;20410;-88
2023/03/11 04:55:09;;;;;;;4.07;0.40;;;-1.80;99.90;;;;;;5068806;28;20781;-88
2023/03/11 04:57:35;;;;;;;4.43;0.30;;;-1.80;99.90;;;;;;5069087;28;20861;-89
2023/03/11 05:00:01;;;;;;;4.70;0.30;;;-1.80;99.90;;;;;;5068296;28;20838;-89
2023/03/11 05:02:26;;;;;;;3.90;0.40;;;-1.90;99.90;;;;;;5085871;28;20757;-89
2023/03/11 05:04:52;;;;;;;5.10;0.65;;;-1.90;99.90;;;;;;5085237;28;20409;-89
2023/03/11 05:07:18;;;;;;;6.13;0.60;;;-1.90;99.90;;;;;;5068762;28;20426;-89
2023/03/11 05:09:43;;;;;;;5.13;0.70;;;-1.90;99.90;;;;;;5068465;28;20405;-88
2023/03/11 05:12:11;;;;;;;5.32;0.52;;;-2.00;99.90;;;;;;5068958;28;20406;-89
2023/03/11 05:14:36;;;;;;;4.43;0.40;;;-2.00;99.90;;;;;;5068144;28;20409;-89
2023/03/11 05:17:02;;;;;;;5.40;0.60;;;-2.10;99.90;;;;;;5068163;28;20414;-88
2023/03/11 05:19:30;;;;;;;4.43;0.40;;;-2.10;99.90;;;;;;5068797;28;20466;-88
2023/03/11 05:21:56;;;;;;;4.83;0.50;;;-2.10;99.90;;;;;;5068223;28;20796;-89
2023/03/11 05:24:22;;;;;;;5.78;0.60;;;-2.10;99.90;;;;;;5085296;28;20857;-89
2023/03/11 05:26:48;;;;;;;4.00;0.55;;;-2.10;99.90;;;;;;5068191;28;20846;-89
2023/03/11 05:29:14;;;;;;;4.35;0.30;;;-2.10;99.90;;;;;;5069121;28;20497;-88
2023/03/11 05:31:39;;;;;;;2.75;0.30;;;-2.20;99.90;;;;;;5069183;28;20414;-89
2023/03/11 05:34:05;;;;;;;4.90;0.40;;;-2.00;99.90;;;;;;5072538;28;20417;-89
2023/03/11 05:36:31;;;;;;;3.60;0.50;;;-2.20;99.90;;;;;;5072987;28;20818;-88
2023/03/11 05:38:56;;;;;;;7.03;0.40;;;-2.20;99.90;;;;;;5088057;28;20413;-89
2023/03/11 05:41:22;;;;;;;4.47;0.40;;;-2.30;99.90;;;;;;5071639;28;20410;-89
2023/03/11 05:43:48;;;;;;;4.38;0.30;;;-2.10;99.90;;;;;;5070493;28;21088;-89
2023/03/11 05:46:13;;;;;;;4.63;0.32;;;-2.20;99.90;;;;;;5071505;28;20463;-89
2023/03/11 05:48:39;;;;;;;5.80;0.50;;;-2.20;99.90;;;;;;5070154;28;20832;-88
2023/03/11 05:51:07;;;;;;;5.38;0.50;;;-2.40;99.90;;;;;;5072089;28;20497;-89
2023/03/11 05:53:32;;;;;;;6.27;0.83;;;-2.40;99.90;;;;;;5071731;28;20451;-89
2023/03/11 05:55:59;;;;;;;7.07;0.80;;;-2.40;99.90;;;;;;5083538;28;20459;-88
2023/03/11 05:58:25;;;;;;;5.05;0.85;;;-2.30;99.90;;;;;;5071881;28;20445;-88
2023/03/11 06:00:51;;;;;;;4.50;1.27;;;-2.30;99.90;;;;;;5071098;28;20414;-89
2023/03/11 06:03:17;;;;;;;7.47;2.20;;;-2.10;99.90;;;;;;5089109;28;20528;-89
2023/03/11 06:05:49;;;;;;;9.90;3.53;;;-2.40;99.90;;;;;;5096012;28;20399;-88
2023/03/11 06:08:16;;;;;;;9.13;4.20;;;-2.40;99.90;;;;;;5069872;28;20422;-89
2023/03/11 06:10:42;;;;;;;7.90;3.47;;;-2.40;99.90;;;;;;5065973;28;20398;-87
2023/03/11 06:13:08;;;;;;;5.40;2.45;;;-2.40;99.90;;;;;;5070730;28;20405;-87
2023/03/11 06:15:35;;;;;;;5.18;1.63;;;-2.40;99.90;;;;;;5071591;28;20769;-88
2023/03/11 06:18:01;;;;;;;7.20;1.70;;;-2.40;99.90;;;;;;5069005;28;20443;-88
2023/03/11 06:20:27;;;;;;;6.68;1.63;;;-2.40;99.90;;;;;;5075692;28;20402;-88
2023/03/11 06:22:53;;;;;;;4.85;1.60;;;-2.20;99.90;;;;;;5071677;28;20398;-89
2023/03/11 06:25:18;;;;;;;6.30;1.90;;;-2.40;99.90;;;;;;5087055;28;20467;-89
2023/03/11 06:27:50;;;;;;;5.10;1.60;;;-2.40;99.90;;;;;;5085012;28;20428;-89
2023/03/11 06:30:19;;;;;;;6.73;1.40;;;-2.30;99.90;;;;;;5091371;28;20436;-87
2023/03/11 06:32:46;;;;;;;7.45;1.50;;;-2.30;99.90;;;;;;5070723;28;20833;-89
2023/03/11 06:35:12;;;;;;;6.18;1.83;;;-2.30;99.90;;;;;;5079735;28;20414;-89
2023/03/11 06:37:38;;;;;;;6.28;2.15;;;-2.20;99.90;;;;;;5087517;28;20405;-89
2023/03/11 06:40:09;;;;;;;7.28;2.00;;;-2.20;99.90;;;;;;5107408;28;20422;-89
2023/03/11 06:42:35;;;;;;;7.85;2.40;;;-2.10;99.90;;;;;;5070400;28;20410;-89
2023/03/11 06:45:01;;;;;;;7.03;2.20;;;-2.10;99.90;;;;;;5074197;28;20551;-90
2023/03/11 06:47:26;;;;;;;4.90;2.50;;;-2.00;99.90;;;;;;5080691;28;20830;-88
2023/03/11 06:49:52;;;;;;;4.20;2.13;;;-1.90;99.90;;;;;;5090563;28;20955;-89
2023/03/11 06:52:18;;;;;;;5.60;2.50;;;-1.80;99.90;;;;;;5088439;28;20404;-89
2023/03/11 06:54:44;;;;;;;7.63;2.70;;;-1.70;99.90;;;;;;5073817;28;20396;-88
2023/03/11 06:57:10;;;;;;;6.43;3.03;;;-1.60;99.90;;;;;;5099384;28;20785;-89
2023/03/11 06:59:36;;;;;;;7.90;3.53;;;-1.60;99.90;;;;;;5081379;28;20412;-89
2023/03/11 07:02:03;;;;;;;8.00;3.20;;;-1.50;99.90;;;;;;5075836;28;20972;-88
2023/03/11 07:04:30;;;;;;;9.27;3.67;;;-1.40;99.90;;;;;;5071400;28;20457;-88
2023/03/11 07:06:55;;;;;;;9.55;4.35;;;-1.30;99.90;;;;;;5101651;28;20434;-87
2023/03/11 07:09:23;;;;;;;8.52;4.15;;;-1.20;99.90;;;;;;5079704;28;20402;-88
2023/03/11 07:11:50;;;;;;;9.73;3.80;;;-1.10;99.90;;;;;;5077259;28;20438;-88
2023/03/11 07:14:17;;;;;;;9.15;3.58;;;-1.00;99.90;;;;;;5089648;28;20761;-88
2023/03/11 07:16:44;;;;;;;8.30;3.00;;;-0.90;99.90;;;;;;5086363;28;20403;-88
2023/03/11 07:19:10;;;;;;;5.43;2.63;;;-0.80;99.90;;;;;;5070976;28;20405;-88
2023/03/11 07:21:36;;;;;;;7.28;2.05;;;-0.70;99.90;;;;;;5074908;28;20403;-89
2023/03/11 07:24:02;;;;;;;7.60;2.50;;;-0.50;99.90;;;;;;5075483;28;20418;-86
2023/03/11 07:26:30;;;;;;;7.10;2.20;;;-0.50;99.90;;;;;;5098187;28;20402;-88
2023/03/11 07:28:56;;;;;;;8.70;2.10;;;-0.40;99.90;;;;;;5105329;28;20420;-88
2023/03/11 07:31:28;;;;;;;7.45;2.58;;;-0.30;99.90;;;;;;5074747;28;20409;-87
2023/03/11 07:33:55;;;;;;;6.68;2.17;;;-0.30;99.90;;;;;;5068295;28;21185;-88
2023/03/11 07:36:23;;;;;;;7.53;2.33;;;-0.10;99.90;;;;;;5092834;28;20394;-87
2023/03/11 07:38:57;;;;;;;8.43;2.30;;;-0.10;99.90;;;;;;5084848;28;20447;-88
2023/03/11 07:41:22;;;;;;;7.45;3.20;;;0.00;99.90;;;;;;5087214;28;20402;-88
2023/03/11 07:43:48;;;;;;;8.07;3.25;;;0.10;99.90;;;;;;5078654;28;20927;-88
2023/03/11 07:46:17;;;;;;;8.83;3.20;;;0.20;99.90;;;;;;5068976;28;20401;-89
2023/03/11 07:48:43;;;;;;;8.93;3.60;;;0.30;99.90;;;;;;5070928;28;20414;-89
2023/03/11 07:51:11;;;;;;;6.05;2.90;;;0.30;99.90;;;;;;5073168;28;20400;-89
2023/03/11 07:53:39;;;;;;;7.17;1.90;;;0.40;99.90;;;;;;5079900;28;20520;-88
2023/03/11 07:56:06;;;;;;;7.78;1.55;;;0.50;99.90;;;;;;5068993;28;20390;-89
2023/03/11 07:58:31;;;;;;;4.40;1.30;;;0.50;99.90;;;;;;5085000;28;20398;-88
2023/03/11 08:01:07;;;;;;;5.15;1.30;;;0.60;99.90;;;;;;5085830;28;20401;-89
2023/03/11 08:03:34;;;;;;;6.40;0.82;;;0.60;99.90;;;;;;5080176;28;20436;-89
2023/03/11 08:06:00;;;;;;;4.82;0.90;;;0.80;99.90;;;;;;5070390;28;20438;-89
2023/03/11 08:08:26;;;;;;;8.43;0.95;;;0.80;99.90;;;;;;5068478;28;20460;-91
2023/03/11 08:10:52;;;;;;;7.50;0.90;;;0.90;99.90;;;;;;5067526;28;20398;-92
2023/03/11 08:13:18;;;;;;;5.82;0.70;;;1.00;99.90;;;;;;5075858;28;20417;-90
2023/03/11 08:15:44;;;;;;;5.97;0.77;;;1.10;99.90;;;;;;5075143;28;20414;-90
2023/03/11 08:18:10;;;;;;;5.63;0.80;;;1.10;99.90;;;;;;5075808;28;20398;-89
2023/03/11 08:20:44;;;;;;;6.40;1.00;;;1.20;99.90;;;;;;5075735;28;20400;-91
2023/03/11 08:23:09;;;;;;;7.00;1.13;;;1.30;99.90;;;;;;5084457;28;20497;-90
2023/03/11 08:25:38;;;;;;;7.23;1.10;;;1.40;99.90;;;;;;5082844;28;20532;-89
2023/03/11 08:28:06;;;;;;;8.97;0.90;;;1.50;99.90;;;;;;5067120;28;20434;-88
2023/03/11 08:30:32;;;;;;;7.80;1.02;;;1.80;99.90;;;;;;5099146;28;20407;-89
2023/03/11 08:32:58;;;;;;;6.45;0.98;;;1.60;99.90;;;;;;5087853;28;20477;-90
2023/03/11 08:35:25;;;;;;;7.30;1.13;;;1.70;99.90;;;;;;5088962;28;20515;-90
2023/03/11 08:37:50;;;;;;;5.80;1.10;;;1.80;99.90;;;;;;5096367;28;20405;-90
2023/03/11 08:40:17;;;;;;;7.30;0.90;;;1.90;99.90;;;;;;5068787;28;20920;-90
2023/03/11 08:42:42;;;;;;;6.90;0.93;;;2.00;99.90;;;;;;5082650;28;20431;-91
2023/03/11 08:45:09;;;;;;;5.07;1.00;;;2.10;99.90;;;;;;5070480;28;20449;-89
2023/03/11 08:47:36;;;;;;;6.00;1.02;;;2.10;99.90;;;;;;5100559;28;20998;-90
2023/03/11 08:50:05;;;;;;;6.63;0.90;;;2.20;99.90;;;;;;5083828;28;20406;-90
2023/03/11 08:52:31;;;;;;;6.13;0.70;;;2.30;99.90;;;;;;5074263;28;20392;-89
2023/03/11 08:54:56;;;;;;;4.90;0.83;;;2.30;99.90;;;;;;5081020;28;20787;-89
2023/03/11 08:57:22;;;;;;;5.57;1.00;;;2.50;99.90;;;;;;5067727;28;20398;-91
2023/03/11 08:59:48;;;;;;;8.60;1.25;;;2.50;99.90;;;;;;5079873;28;20463;-89
2023/03/11 09:02:14;;;;;;;5.60;1.00;;;2.60;99.90;;;;;;5074424;28;21559;-91
2023/03/11 09:04:42;;;;;;;3.23;0.93;;;2.70;99.90;;;;;;5068120;28;20456;-91
2023/03/11 09:07:16;;;;;;;4.82;0.80;;;2.70;99.90;;;;;;5067422;28;20429;-91
2023/03/11 09:09:42;;;;;;;5.30;0.52;;;2.80;99.90;;;;;;5083771;28;20402;-90
2023/03/11 09:12:12;;;;;;;4.60;0.60;;;2.90;99.90;;;;;;5091973;28;20427;-90
2023/03/11 09:14:39;;;;;;;7.07;0.68;;;3.00;99.90;;;;;;5088279;28;20747;-90
2023/03/11 09:17:05;;;;;;;5.13;0.90;;;3.00;99.90;;;;;;5069645;28;20394;-90
2023/03/11 09:19:30;;;;;;;6.07;0.60;;;3.10;99.90;;;;;;5082715;28;20552;-89
2023/03/11 09:21:59;;;;;;;5.50;0.60;;;3.10;99.90;;;;;;5067229;28;20413;-89
2023/03/11 09:24:27;;;;;;;5.90;0.60;;;3.20;99.90;;;;;;5093844;28;20918;-90
2023/03/11 09:26:53;;;;;;;5.50;0.50;;;3.20;99.90;;;;;;5083473;28;20476;-90
2023/03/11 09:29:18;;;;;;;5.67;0.63;;;3.30;99.90;;;;;;5067181;28;20414;-90
2023/03/11 09:31:44;;;;;;;5.07;0.70;;;3.40;99.90;;;;;;5068620;28;20424;-90
2023/03/11 09:34:13;;;;;;;4.43;0.50;;;3.50;99.90;;;;;;5086732;28;20855;-91
2023/03/11 09:36:42;;;;;;;5.57;0.80;;;3.50;99.90;;;;;;5088217;28;20483;-91
2023/03/11 09:39:08;;;;;;;4.63;0.47;;;3.60;99.90;;;;;;5078753;28;20478;-90
2023/03/11 09:42:02;;;;;;;7.60;0.50;;;3.60;99.90;;;;;;5075739;28;20487;-91
2023/03/11 09:44:45;;;;;;;7.03;0.45;;;3.70;99.90;;;;;;5067347;28;20525;-89
2023/03/11 09:47:52;;;;;;;3.45;0.50;;;3.80;99.90;;;;;;5064392;28;20711;-90
2023/03/11 09:50:27;;;;;;;5.63;0.55;;;3.80;99.90;;;;;;5067941;28;20414;-91
2023/03/11 09:53:09;;;;;;;7.50;0.50;;;3.90;99.90;;;;;;5087278;28;20435;-90
2023/03/11 09:55:47;;;;;;;4.97;0.75;;;4.00;99.90;;;;;;5065922;28;20406;-89
2023/03/11 09:58:51;;;;;;;4.35;0.60;;;4.20;99.90;;;;;;5070077;28;20426;-91
2023/03/11 10:01:41;;;;;;;4.20;0.65;;;5.10;99.90;;;;;;5066609;28;21089;-90
2023/03/11 10:04:29;;;;;;;4.13;0.65;;;6.00;97.60;;;;;;5066496;28;20398;-88
2023/03/11 10:06:55;;;;;;;5.60;0.50;;;6.80;96.60;;;;;;5082987;28;20504;-88
2023/03/11 10:09:59;;;;;;;5.28;0.68;;;7.40;94.20;;;;;;5066277;28;20863;-89
2023/03/11 10:12:50;;;;;;;6.63;0.73;;;8.00;92.70;;;;;;5074323;28;20410;-90
2023/03/11 10:15:37;;;;;;;3.93;0.57;;;8.50;89.60;;;;;;5084817;28;20421;-90
2023/03/11 10:18:37;;;;;;;4.20;0.50;;;9.20;86.60;;;;;;5085532;28;20409;-90
2023/03/11 10:21:27;;;;;;;4.65;0.60;;;9.90;87.00;;;;;;5069562;28;20434;-89
2023/03/11 10:24:13;;;;;;;4.57;0.40;;;10.50;78.00;;;;;;5070117;28;20466;-89
2023/03/11 10:26:47;;;;;;;4.32;0.30;;;10.50;72.00;;;;;;5086060;28;20464;-88
2023/03/11 10:29:22;;;;;;;4.63;0.35;;;10.90;75.50;;;;;;5090365;28;20430;-89
2023/03/11 10:31:59;;;;;;;4.20;0.50;;;11.10;72.80;;;;;;5100952;28;20729;-89
2023/03/11 10:34:38;;;;;;;3.90;0.38;;;11.20;69.40;;;;;;5077337;28;20438;-89
2023/03/11 10:37:31;;;;;;;4.45;0.30;;;11.30;67.00;;;;;;5099212;28;20419;-88
2023/03/11 10:40:06;;;;;;;3.65;0.30;;;11.40;65.10;;;;;;5106199;28;20440;-88
2023/03/11 10:42:33;;;;;;;4.80;0.30;;;11.30;65.40;;;;;;5080634;28;20398;-88
2023/03/11 10:45:00;;;;;;;2.30;0.30;;;11.10;68.00;;;;;;5069504;28;20402;-88
2023/03/11 10:47:26;;;;;;;3.28;0.30;;;10.90;68.60;;;;;;5063841;28;20778;-89
2023/03/11 10:49:51;;;;;;;3.83;0.40;;;10.90;64.60;;;;;;5103593;28;20472;-90
2023/03/11 10:52:18;;;;;;;4.38;0.52;;;10.50;63.50;;;;;;5091822;28;20436;-89
2023/03/11 10:54:46;;;;;;;4.55;0.40;;;10.30;64.00;;;;;;5072005;28;20452;-90
2023/03/11 10:57:28;;;;;;;3.13;0.55;;;9.80;65.80;;;;;;5069920;28;20394;-89
2023/03/11 10:59:55;;;;;;;4.03;0.70;;;9.60;67.50;;;;;;5070402;28;20449;-89
2023/03/11 11:03:00;;;;;;;4.35;0.60;;;9.40;69.70;;;;;;5076259;28;20396;-90
2023/03/11 11:05:31;;;;;;;4.10;0.70;;;9.30;68.90;;;;;;5034165;28;21263;-90
2023/03/11 11:08:06;;;;;;;4.60;0.52;;;9.30;69.10;;;;;;5028295;28;20425;-90
2023/03/11 11:10:35;;;;;;;2.67;0.40;;;9.20;70.00;;;;;;5059993;28;20958;-90
2023/03/11 11:13:07;;;;;;;3.75;0.75;;;9.20;70.60;;;;;;5096168;28;20481;-90
2023/03/11 11:15:32;;;;;;;3.15;0.45;;;9.10;72.50;;;;;;5070618;28;20421;-90
2023/03/11 11:18:05;;;;;;;3.47;0.40;;;9.10;71.40;;;;;;5086747;28;20427;-91
2023/03/11 11:20:32;;;;;;;5.15;0.50;;;9.30;76.10;;;;;;5084996;28;20916;-93
2023/03/11 11:23:00;;;;;;;3.60;0.40;;;9.40;70.40;;;;;;5076354;28;20931;-91
2023/03/11 11:25:39;;;;;;;5.63;0.50;;;9.60;73.30;;;;;;5070108;28;20402;-92
2023/03/11 11:28:19;;;;;;;6.53;0.45;;;9.80;76.40;;;;;;5070524;28;20972;-91
2023/03/11 11:30:56;;;;;;;3.65;0.50;;;10.00;75.30;;;;;;5074041;28;20410;-92
2023/03/11 11:33:47;;;;;;;4.13;0.50;;;10.30;69.80;;;;;;5070814;28;20413;-91
2023/03/11 11:36:14;;;;;;;4.45;0.50;;;10.30;72.00;;;;;;5086930;28;20416;-91
2023/03/11 11:38:40;;;;;;;4.15;0.40;;;10.30;73.50;;;;;;5072058;28;20425;-91
2023/03/11 11:41:12;;;;;;;2.92;0.40;;;10.20;72.60;;;;;;5096750;28;20965;-91
2023/03/11 11:43:54;;;;;;;3.28;0.30;;;10.20;73.70;;;;;;5089217;28;20495;-89
2023/03/11 11:46:43;;;;;;;4.75;0.40;;;10.20;74.30;;;;;;5087242;28;21295;-91
2023/03/11 11:49:20;;;;;;;4.43;0.50;;;10.10;70.50;;;;;;5079011;28;20508;-90
2023/03/11 11:52:07;;;;;;;3.45;0.40;;;10.10;76.70;;;;;;5074260;28;20804;-91
2023/03/11 11:54:49;;;;;;;3.17;0.40;;;10.20;74.20;;;;;;5078450;28;20414;-90
2023/03/11 11:57:18;;;;;;;3.25;0.40;;;10.30;71.00;;;;;;5078890;28;20455;-90
2023/03/11 11:59:44;;;;;;;3.60;0.40;;;10.20;72.80;;;;;;5069627;28;20402;-91
2023/03/11 12:02:32;;;;;;;4.72;0.40;;;10.10;74.00;;;;;;5101968;28;20800;-90
2023/03/11 12:05:09;;;;;;;4.70;0.30;;;10.20;73.20;;;;;;5089299;28;20809;-89
2023/03/11 12:07:58;;;;;;;4.22;0.30;;;10.50;72.10;;;;;;5077066;28;20770;-90
2023/03/11 12:10:49;;;;;;;3.42;0.30;;;10.80;69.60;;;;;;5088426;28;20895;-91
2023/03/11 12:13:28;;;;;;;3.00;0.30;;;10.90;70.50;;;;;;5078902;28;20411;-91
2023/03/11 12:16:21;;;;;;;3.45;0.35;;;11.00;65.40;;;;;;5090012;28;20805;-91
2023/03/11 12:18:54;;;;;;;6.25;0.20;;;11.00;65.90;;;;;;5089151;28;20903;-90
2023/03/11 12:21:45;;;;;;;5.15;0.40;;;10.90;68.10;;;;;;5089605;28;20436;-92
2023/03/11 12:24:35;;;;;;;3.67;0.20;;;10.90;68.00;;;;;;5086961;28;20412;-92
2023/03/11 12:27:11;;;;;;;2.63;0.30;;;10.70;64.80;;;;;;5080782;28;20915;-90
2023/03/11 12:29:42;;;;;;;3.20;0.30;;;10.50;61.50;;;;;;5069375;28;20904;-91
2023/03/11 12:32:15;;;;;;;3.33;0.20;;;10.40;66.80;;;;;;5068586;28;20441;-88
2023/03/11 12:34:41;;;;;;;5.28;0.20;;;10.40;64.80;;;;;;5085351;28;20456;-91
2023/03/11 12:37:13;;;;;;;2.28;0.10;;;10.30;67.00;;;;;;5069266;28;20406;-91
2023/03/11 12:39:39;;;;;;;2.45;0.20;;;10.50;65.40;;;;;;5068173;28;20406;-91
2023/03/11 12:42:15;;;;;;;4.57;0.30;;;10.60;66.90;;;;;;5069504;28;20405;-90
2023/03/11 12:44:41;;;;;;;4.55;0.20;;;10.80;67.80;;;;;;5068501;28;20841;-91
2023/03/11 12:47:07;;;;;;;3.67;0.20;;;10.90;65.10;;;;;;5068994;28;20394;-91
2023/03/11 12:49:39;;;;;;;4.78;0.20;;;11.20;66.70;;;;;;5068696;28;20420;-90
2023/03/11 12:52:08;;;;;;;2.88;0.20;;;11.50;65.80;;;;;;5064326;28;21007;-90
2023/03/11 12:54:45;;;;;;;3.95;0.40;;;12.20;65.10;;;;;;5069246;28;20422;-91
2023/03/11 12:57:17;;;;;;;1.90;0.25;;;12.50;62.10;;;;;;5068298;28;20449;-92
2023/03/11 12:59:48;;;;;;;3.67;0.20;;;12.70;59.70;;;;;;5069795;28;20468;-91
2023/03/11 13:02:32;;;;;;;3.65;0.30;;;12.80;56.40;;;;;;5085686;28;20409;-90
2023/03/11 13:05:18;;;;;;;3.35;0.20;;;12.90;58.70;;;;;;5068284;28;20410;-92